Time;durP1;ratioP1;P1;durP2;ratioP2;P2;SDS_P1;SDS_P2;PMS_P1;PMS_P2;Temp;Humidity;BMP_temperature;BMP_pressure;BME280_temperature;BME280_humidity;BME280_pressure;Samples;Min_cycle;Max_cycle;Signal;HPM_P1;HPM_P2
2022/08/19 00:01:53;;;;;;;;;11.75;10.50;;;;;22.79;54.53;101198.09;5098543;27;45699;-52
2022/08/19 00:04:24;;;;;;;;;19.25;13.25;;;;;22.76;54.22;101195.84;5098772;27;45350;-52
2022/08/19 00:06:49;;;;;;;;;11.25;11.00;;;;;22.75;54.62;101194.16;5098799;27;45452;-51
2022/08/19 00:09:18;;;;;;;;;13.25;12.25;;;;;22.71;54.65;101189.38;5098580;27;45565;-49
2022/08/19 00:11:44;;;;;;;;;16.00;12.00;;;;;22.70;54.34;101196.69;5098320;27;47018;-51
2022/08/19 00:14:12;;;;;;;;;11.50;9.50;;;;;22.64;54.43;101194.84;5098191;27;45451;-53
2022/08/19 00:16:38;;;;;;;;;15.00;13.75;;;;;22.64;54.71;101201.09;5098247;27;45354;-52
2022/08/19 00:19:05;;;;;;;;;15.25;12.00;;;;;22.61;54.81;101201.53;5098602;27;45450;-52
2022/08/19 00:21:31;;;;;;;;;14.00;12.00;;;;;22.50;55.03;101204.94;5097700;27;45353;-53
2022/08/19 00:23:59;;;;;;;;;15.00;12.50;;;;;22.49;55.19;101197.81;5098247;27;45260;-51
2022/08/19 00:26:27;;;;;;;;;15.25;13.50;;;;;22.52;55.34;101210.13;5098311;27;45453;-51
2022/08/19 00:28:52;;;;;;;;;16.00;12.50;;;;;22.44;55.27;101196.81;5098099;27;45341;-53
2022/08/19 00:31:18;;;;;;;;;14.00;12.25;;;;;22.43;55.80;101201.41;5098065;27;45291;-53
2022/08/19 00:33:43;;;;;;;;;17.25;14.00;;;;;22.41;55.55;101206.19;5097841;27;45350;-51
2022/08/19 00:36:10;;;;;;;;;13.00;10.75;;;;;22.36;55.91;101195.97;5097968;27;45299;-52
2022/08/19 00:38:41;;;;;;;;;15.00;11.50;;;;;22.37;55.76;101205.78;5098318;27;45449;-49
2022/08/19 00:41:07;;;;;;;;;13.50;12.00;;;;;22.36;56.00;101201.41;5097663;27;47199;-53
2022/08/19 00:43:33;;;;;;;;;11.50;10.50;;;;;22.34;56.13;101208.09;5097085;27;45432;-51
2022/08/19 00:45:59;;;;;;;;;15.75;12.75;;;;;22.28;55.88;101200.81;5097860;27;45468;-52
2022/08/19 00:48:24;;;;;;;;;14.25;10.75;;;;;22.33;55.94;101206.41;5079621;27;45447;-51
2022/08/19 00:50:53;;;;;;;;;13.75;12.00;;;;;22.28;55.91;101201.63;5097591;27;45382;-52
2022/08/19 00:53:21;;;;;;;;;14.50;10.75;;;;;22.29;56.10;101211.47;5097556;27;45217;-52
2022/08/19 00:55:49;;;;;;;;;15.25;11.25;;;;;22.26;55.83;101209.16;5097276;27;45599;-52
2022/08/19 00:58:18;;;;;;;;;10.25;10.25;;;;;22.24;55.99;101208.53;5098007;27;45437;-51
2022/08/19 01:00:45;;;;;;;;;16.50;14.75;;;;;22.14;56.38;101195.44;5097073;27;46147;-51
2022/08/19 01:03:14;;;;;;;;;12.00;11.00;;;;;22.21;56.14;101208.97;5097523;27;45392;-52
2022/08/19 01:05:42;;;;;;;;;14.25;12.00;;;;;22.16;55.81;101204.19;5097635;27;45278;-51
2022/08/19 01:08:09;;;;;;;;;9.00;8.75;;;;;22.11;55.96;101203.94;5096340;27;45464;-52
2022/08/19 01:10:40;;;;;;;;;11.75;10.50;;;;;22.11;55.77;101201.22;5097284;27;46235;-52
2022/08/19 01:13:06;;;;;;;;;11.00;9.50;;;;;22.09;56.42;101205.22;5078632;27;45778;-52
2022/08/19 01:15:50;;;;;;;;;12.75;10.25;;;;;21.95;56.08;101184.59;5097414;27;45361;-52
2022/08/19 01:18:17;;;;;;;;;13.75;10.75;;;;;22.02;56.73;101204.38;5097535;27;45345;-52
2022/08/19 01:20:43;;;;;;;;;14.50;11.00;;;;;21.97;56.40;101204.19;5097377;27;46114;-52
2022/08/19 01:23:09;;;;;;;;;11.00;10.00;;;;;21.97;56.36;101207.72;5097240;27;45214;-53
2022/08/19 01:25:45;;;;;;;;;9.00;8.25;;;;;21.96;55.87;101202.53;5097457;27;45203;-54
2022/08/19 01:28:26;;;;;;;;;12.75;10.50;;;;;21.93;56.13;101209.19;5097476;27;45287;-54
2022/08/19 01:30:53;;;;;;;;;15.25;13.00;;;;;21.91;56.75;101205.84;5096216;27;46344;-54
2022/08/19 01:33:19;;;;;;;;;13.00;11.50;;;;;21.88;56.72;101203.56;5100012;27;45237;-54
2022/08/19 01:35:45;;;;;;;;;11.25;9.50;;;;;21.77;56.34;101196.06;5100966;27;45375;-53
2022/08/19 01:38:22;;;;;;;;;10.50;9.00;;;;;21.80;56.85;101192.94;5100668;27;45331;-55
2022/08/19 01:40:47;;;;;;;;;11.00;8.75;;;;;21.84;56.67;101205.03;5100338;27;46419;-53
2022/08/19 01:43:13;;;;;;;;;12.00;10.25;;;;;21.82;57.15;101202.50;5100570;27;45251;-51
2022/08/19 01:45:39;;;;;;;;;14.00;12.00;;;;;21.80;57.42;101201.91;5100578;27;45310;-51
2022/08/19 01:48:06;;;;;;;;;13.25;10.50;;;;;21.81;56.98;101200.84;5100825;27;45207;-54
2022/08/19 01:50:34;;;;;;;;;13.00;10.25;;;;;21.82;56.97;101204.41;5100695;27;46291;-54
2022/08/19 01:53:01;;;;;;;;;15.50;12.75;;;;;21.80;56.88;101215.44;5100418;27;45500;-54
2022/08/19 01:55:27;;;;;;;;;11.00;9.00;;;;;21.79;57.00;101221.91;5100764;27;45237;-53
2022/08/19 01:57:57;;;;;;;;;12.25;10.00;;;;;21.76;57.14;101213.38;5100662;27;45417;-54
2022/08/19 02:00:25;;;;;;;;;18.25;10.25;;;;;21.76;57.27;101218.78;5099569;27;45456;-53
2022/08/19 02:02:51;;;;;;;;;14.25;12.00;;;;;21.64;57.19;101196.91;5100210;27;45373;-54
2022/08/19 02:05:18;;;;;;;;;13.75;11.00;;;;;21.72;57.50;101212.94;5100449;27;45441;-53
2022/08/19 02:07:44;;;;;;;;;12.00;12.00;;;;;21.69;57.53;101216.06;5100617;27;45401;-52
2022/08/19 02:10:13;;;;;;;;;12.00;9.75;;;;;21.68;57.27;101217.13;5099915;27;47892;-50
2022/08/19 02:12:39;;;;;;;;;12.75;12.75;;;;;21.67;57.82;101221.69;5100095;27;45388;-52
2022/08/19 02:15:05;;;;;;;;;14.00;12.75;;;;;21.53;57.82;101198.38;5099984;27;45307;-53
2022/08/19 02:17:31;;;;;;;;;15.25;12.50;;;;;21.63;57.79;101220.44;5100361;27;45501;-53
2022/08/19 02:19:57;;;;;;;;;14.00;12.50;;;;;21.62;57.74;101215.25;5099877;27;45550;-53
2022/08/19 02:22:25;;;;;;;;;15.75;13.75;;;;;21.60;57.73;101209.19;5100795;27;45227;-54
2022/08/19 02:24:51;;;;;;;;;18.25;13.75;;;;;21.60;58.12;101220.03;5100438;27;45329;-54
2022/08/19 02:27:16;;;;;;;;;12.00;12.00;;;;;21.59;58.06;101219.19;5100783;27;45642;-52
2022/08/19 02:29:42;;;;;;;;;12.25;12.00;;;;;21.56;57.47;101221.47;5100060;27;45477;-52
2022/08/19 02:32:07;;;;;;;;;11.25;11.25;;;;;21.53;57.82;101217.34;5099862;27;45333;-51
2022/08/19 02:34:34;;;;;;;;;14.25;11.75;;;;;21.51;58.13;101221.28;5100275;27;45286;-51
2022/08/19 02:36:59;;;;;;;;;16.75;14.25;;;;;21.51;58.33;101226.69;5099893;27;45303;-53
2022/08/19 02:39:24;;;;;;;;;17.00;15.50;;;;;21.49;58.50;101221.50;5099753;27;45346;-54
2022/08/19 02:41:51;;;;;;;;;19.25;15.50;;;;;21.49;58.68;101220.63;5099723;27;45321;-54
2022/08/19 02:44:17;;;;;;;;;12.25;12.00;;;;;21.45;58.32;101216.69;5099793;27;45376;-52
2022/08/19 02:46:46;;;;;;;;;15.25;14.75;;;;;21.48;58.47;101222.50;5099958;27;45377;-53
2022/08/19 02:49:12;;;;;;;;;18.00;16.00;;;;;21.48;59.12;101222.50;5099419;27;47039;-53
2022/08/19 02:51:42;;;;;;;;;17.00;13.50;;;;;21.36;58.47;101197.97;5099476;27;45456;-52
2022/08/19 02:54:10;;;;;;;;;15.50;13.75;;;;;21.42;58.69;101196.28;5099773;27;45473;-53
2022/08/19 02:56:36;;;;;;;;;12.25;12.25;;;;;21.53;58.44;101220.03;5099836;27;45425;-53
2022/08/19 02:59:09;;;;;;;;;19.75;13.00;;;;;21.58;58.67;101217.53;5098791;27;46289;-52
2022/08/19 03:01:35;;;;;;;;;13.50;12.25;;;;;21.58;58.15;101217.53;5099239;27;45334;-55
2022/08/19 03:04:03;;;;;;;;;16.00;14.00;;;;;21.62;58.63;101235.03;5099347;27;45293;-53
2022/08/19 03:06:30;;;;;;;;;17.00;14.50;;;;;21.52;57.74;101202.09;5099742;27;45270;-49
2022/08/19 03:08:56;;;;;;;;;12.25;12.00;;;;;21.68;57.82;101227.94;5099355;27;46184;-51
2022/08/19 03:11:29;;;;;;;;;17.25;14.50;;;;;21.69;58.65;101229.59;5099316;27;45348;-53
2022/08/19 03:13:55;;;;;;;;;14.50;12.50;;;;;21.68;58.61;101219.81;5099631;27;45392;-53
2022/08/19 03:16:24;;;;;;;;;16.75;13.50;;;;;21.67;58.61;101226.28;5081070;27;45610;-52
2022/08/19 03:18:51;;;;;;;;;15.75;12.00;;;;;21.63;58.48;101225.03;5099300;27;46271;-52
2022/08/19 03:21:21;;;;;;;;;18.75;14.00;;;;;21.60;59.04;101220.84;5098956;27;45382;-53
2022/08/19 03:23:46;;;;;;;;;13.50;11.25;;;;;21.51;58.72;101216.69;5099170;27;45316;-52
2022/08/19 03:26:12;;;;;;;;;12.00;11.25;;;;;21.48;59.67;101210.84;5099426;27;45223;-54
2022/08/19 03:28:37;;;;;;;;;11.00;11.00;;;;;21.48;58.96;101222.50;5099150;27;46133;-53
2022/08/19 03:31:11;;;;;;;;;14.25;12.25;;;;;21.43;59.91;101216.91;5098930;27;45322;-51
2022/08/19 03:33:37;;;;;;;;;11.75;10.50;;;;;21.43;60.10;101214.19;5098883;27;45253;-52
2022/08/19 03:36:09;;;;;;;;;11.50;11.50;;;;;21.44;59.53;101215.84;5099361;27;45504;-53
2022/08/19 03:38:42;;;;;;;;;15.75;12.50;;;;;21.44;59.77;101213.13;5098848;27;46163;-53
2022/08/19 03:41:11;;;;;;;;;17.75;12.50;;;;;21.47;59.61;101217.31;5098793;27;45296;-53
2022/08/19 03:43:39;;;;;;;;;10.50;10.25;;;;;21.47;59.68;101222.72;5098838;27;45329;-53
2022/08/19 03:46:10;;;;;;;;;14.50;12.75;;;;;21.47;59.83;101228.16;5098869;27;45354;-54
2022/08/19 03:48:38;;;;;;;;;13.75;11.75;;;;;21.47;59.55;101230.84;5098551;27;46279;-53
2022/08/19 03:51:04;;;;;;;;;9.50;9.50;;;;;21.42;60.17;101209.81;5098580;27;45364;-53
2022/08/19 03:53:31;;;;;;;;;13.00;11.50;;;;;21.46;59.51;101219.19;5098806;27;45321;-50
2022/08/19 03:55:59;;;;;;;;;11.25;8.25;;;;;21.47;59.62;101220.84;5098322;27;45354;-51
2022/08/19 03:58:25;;;;;;;;;9.50;8.50;;;;;21.48;59.47;101227.94;5098458;27;45686;-53
2022/08/19 04:00:51;;;;;;;;;7.00;7.00;;;;;21.49;59.95;101224.19;5098369;27;45393;-51
2022/08/19 04:03:18;;;;;;;;;8.25;8.00;;;;;21.50;59.66;101225.03;5098755;27;45334;-52
2022/08/19 04:05:44;;;;;;;;;11.75;9.50;;;;;21.35;59.54;101195.44;5098770;27;45401;-53
2022/08/19 04:08:09;;;;;;;;;7.25;7.25;;;;;21.48;59.19;101217.09;5098236;27;46580;-52
2022/08/19 04:10:40;;;;;;;;;7.00;7.00;;;;;21.51;59.29;101216.69;5098443;27;45362;-52
2022/08/19 04:13:06;;;;;;;;;15.25;13.00;;;;;21.51;59.96;101222.09;5098389;27;45444;-52
2022/08/19 04:15:38;;;;;;;;;9.75;9.75;;;;;21.49;59.29;101213.38;5098590;27;45431;-54
2022/08/19 04:18:05;;;;;;;;;11.75;10.00;;;;;21.52;59.83;101214.81;5097913;27;46444;-53
2022/08/19 04:20:31;;;;;;;;;11.25;9.50;;;;;21.52;59.78;101217.53;5098217;27;45188;-52
2022/08/19 04:22:56;;;;;;;;;6.00;5.00;;;;;21.52;59.79;101212.94;5098353;27;45282;-54
2022/08/19 04:25:22;;;;;;;;;9.00;9.00;;;;;21.53;59.73;101211.91;5098347;27;45482;-52
2022/08/19 04:27:48;;;;;;;;;7.00;7.00;;;;;21.52;59.87;101212.09;5098065;27;46397;-51
2022/08/19 04:30:14;;;;;;;;;8.00;8.00;;;;;21.55;59.59;101217.94;5097881;27;45391;-52
2022/08/19 04:32:39;;;;;;;;;8.50;8.50;;;;;21.55;60.06;101217.94;5098092;27;45379;-52
2022/08/19 04:35:05;;;;;;;;;8.25;8.25;;;;;21.56;59.37;101226.91;5097210;27;45341;-52
2022/08/19 04:37:33;;;;;;;;;6.00;5.00;;;;;21.57;59.68;101232.09;5097666;27;45734;-53
2022/08/19 04:42:43;;;;;;;;;7.50;6.00;;;;;21.55;59.38;101222.53;5097971;27;45490;-52
2022/08/19 04:45:12;;;;;;;;;4.50;3.75;;;;;21.42;59.26;101202.53;5098239;27;45339;-52
2022/08/19 04:47:40;;;;;;;;;5.25;5.00;;;;;21.55;59.74;101234.19;5079339;27;46498;-52
2022/08/19 04:50:07;;;;;;;;;7.00;5.50;;;;;21.55;59.93;101234.19;5097837;27;45508;-52
2022/08/19 04:52:33;;;;;;;;;5.25;5.25;;;;;21.56;59.71;101243.16;5098043;27;45444;-52
2022/08/19 04:54:59;;;;;;;;;6.50;6.25;;;;;21.52;60.17;101229.19;5097992;27;45236;-52
2022/08/19 04:57:24;;;;;;;;;9.00;5.00;;;;;21.58;59.50;101239.19;5097617;27;46147;-52
2022/08/19 04:59:54;;;;;;;;;3.75;3.75;;;;;21.58;59.83;101243.78;5097587;27;45294;-51
2022/08/19 05:02:20;;;;;;;;;4.50;4.50;;;;;21.48;60.02;101236.03;5097691;27;45344;-52
2022/08/19 05:04:45;;;;;;;;;7.00;5.75;;;;;21.60;59.75;101256.06;5097826;27;45451;-51
2022/08/19 05:07:11;;;;;;;;;5.00;5.00;;;;;21.55;59.44;101245.03;5096445;27;45477;-51
2022/08/19 05:09:37;;;;;;;;;8.25;5.75;;;;;21.62;60.53;101255.88;5097690;27;45433;-52
2022/08/19 05:12:03;;;;;;;;;5.00;5.00;;;;;21.58;60.55;101250.03;5097788;27;45644;-52
2022/08/19 05:14:29;;;;;;;;;4.25;4.00;;;;;21.64;60.15;101242.94;5097826;27;45357;-53
2022/08/19 05:16:54;;;;;;;;;5.50;4.00;;;;;21.64;60.58;101254.59;5097310;27;45333;-52
2022/08/19 05:24:47;;;;;;;;;7.50;5.75;;;;;21.68;59.41;101261.28;5097588;27;45373;-53
2022/08/19 05:27:13;;;;;;;;;6.50;4.00;;;;;21.37;59.64;101225.84;5097141;27;46147;-54
2022/08/19 05:29:38;;;;;;;;;3.50;3.50;;;;;21.58;60.14;101254.63;5097081;27;45377;-53
2022/08/19 05:32:08;;;;;;;;;4.25;4.25;;;;;21.62;60.36;101256.69;5097384;27;45228;-52
2022/08/19 05:34:33;;;;;;;;;5.00;4.00;;;;;21.66;59.95;101265.25;5097301;27;45322;-52
2022/08/19 05:36:59;;;;;;;;;5.25;4.00;;;;;21.64;59.43;101256.47;5096797;27;45388;-53
2022/08/19 05:39:30;;;;;;;;;6.50;3.50;;;;;21.71;59.78;101267.31;5097221;27;45263;-53
2022/08/19 05:41:59;;;;;;;;;7.50;5.00;;;;;21.60;60.19;101250.63;5097346;27;45410;-52
2022/08/19 05:44:26;;;;;;;;;5.75;5.75;;;;;21.62;60.02;101266.69;5097272;27;45380;-53
2022/08/19 05:46:52;;;;;;;;;3.00;3.00;;;;;21.74;60.07;101277.72;5096967;27;46270;-52
2022/08/19 05:49:21;;;;;;;;;4.40;3.00;;;;;21.73;60.04;101262.53;5096953;27;45252;-52
2022/08/19 05:51:47;;;;;;;;;5.00;5.00;;;;;21.74;60.12;101264.19;5097286;27;45282;-52
2022/08/19 05:54:13;;;;;;;;;4.25;3.75;;;;;21.74;60.18;101250.63;5097319;27;45282;-52
2022/08/19 05:56:40;;;;;;;;;5.00;5.00;;;;;21.71;60.61;101251.91;5096835;27;46180;-53
2022/08/19 05:59:09;;;;;;;;;4.00;4.00;;;;;21.81;60.35;101265.84;5097036;27;45237;-53
2022/08/19 06:01:36;;;;;;;;;4.00;4.00;;;;;21.80;60.42;101266.91;5096997;27;45386;-52
2022/08/19 06:04:03;;;;;;;;;3.50;3.50;;;;;21.84;60.22;101268.16;5096929;27;45349;-53
2022/08/19 06:06:28;;;;;;;;;5.00;3.00;;;;;21.90;60.04;101280.84;5096727;27;45446;-53
2022/08/19 06:08:54;;;;;;;;;3.75;3.75;;;;;21.96;60.25;101281.91;5096564;27;45333;-52
2022/08/19 06:11:23;;;;;;;;;2.75;2.75;;;;;21.99;60.34;101281.47;5097005;27;45439;-53
2022/08/19 06:13:52;;;;;;;;;5.00;3.50;;;;;22.02;60.43;101282.94;5097642;27;45447;-53
2022/08/19 06:16:22;;;;;;;;;3.25;3.25;;;;;22.02;60.46;101282.94;5096934;27;46064;-55
2022/08/19 06:18:50;;;;;;;;;3.00;3.00;;;;;21.98;59.53;101285.22;5099213;27;45440;-55
2022/08/19 06:21:15;;;;;;;;;4.60;4.60;;;;;21.89;60.50;101295.44;5100467;27;45459;-51
2022/08/19 06:23:40;;;;;;;;;4.50;4.00;;;;;21.82;60.82;101300.00;5100217;27;45475;-52
2022/08/19 06:26:07;;;;;;;;;3.00;3.00;;;;;21.78;60.54;101295.22;5100258;27;46145;-53
2022/08/19 06:28:33;;;;;;;;;3.80;3.80;;;;;21.78;61.44;101306.06;5100143;27;45380;-54
2022/08/19 06:30:58;;;;;;;;;2.50;2.50;;;;;21.76;61.14;101300.03;5100385;27;45385;-54
2022/08/19 06:33:24;;;;;;;;;5.00;5.00;;;;;21.68;60.93;101298.34;5100171;27;45530;-54
2022/08/19 06:35:49;;;;;;;;;4.50;3.50;;;;;21.71;60.87;101299.81;5099887;27;46146;-54
2022/08/19 06:38:14;;;;;;;;;2.75;2.75;;;;;21.63;61.00;101290.00;5099908;27;45452;-53
2022/08/19 06:40:40;;;;;;;;;4.00;4.00;;;;;21.67;61.36;101297.53;5099974;27;45328;-53
2022/08/19 06:43:05;;;;;;;;;5.50;3.50;;;;;21.76;60.99;101313.56;5100032;27;45255;-51
2022/08/19 06:45:30;;;;;;;;;2.50;2.50;;;;;21.79;61.44;101311.28;5099488;27;46310;-54
2022/08/19 06:47:56;;;;;;;;;3.00;3.00;;;;;21.83;61.01;101319.84;5099559;27;45500;-52
2022/08/19 06:50:25;;;;;;;;;4.00;4.00;;;;;21.82;60.60;101310.03;5100138;27;45262;-52
2022/08/19 06:52:50;;;;;;;;;4.50;3.00;;;;;21.85;61.20;101306.91;5100067;27;45492;-55
2022/08/19 06:55:17;;;;;;;;;2.00;2.00;;;;;21.87;60.88;101307.53;5099573;27;46265;-55
2022/08/19 06:57:42;;;;;;;;;3.60;2.80;;;;;21.91;61.19;101300.66;5099679;27;45345;-54
2022/08/19 07:00:15;;;;;;;;;4.00;2.50;;;;;22.01;60.84;101311.09;5099698;27;45266;-54
2022/08/19 07:02:42;;;;;;;;;3.75;3.75;;;;;22.16;60.21;101309.88;5099687;27;45246;-55
2022/08/19 07:05:08;;;;;;;;;4.75;3.00;;;;;22.50;59.54;101307.94;5099149;27;46467;-54
2022/08/19 07:07:34;;;;;;;;;1.50;1.00;;;;;22.84;58.80;101314.94;5099417;27;45682;-54
2022/08/19 07:10:00;;;;;;;;;3.20;3.20;;;;;23.03;58.44;101310.50;5081282;27;45287;-54
2022/08/19 07:12:31;;;;;;;;;4.00;2.75;;;;;23.06;58.00;101315.53;5099773;27;45518;-55
2022/08/19 07:14:57;;;;;;;;;2.80;2.80;;;;;22.96;58.09;101315.13;5098781;27;45373;-55
2022/08/19 07:17:23;;;;;;;;;2.00;2.00;;;;;22.85;57.99;101302.22;5099318;27;45349;-54
2022/08/19 07:19:50;;;;;;;;;7.00;3.75;;;;;23.32;57.80;101321.88;5099528;27;45341;-55
2022/08/19 07:22:15;;;;;;;;;1.00;1.00;;;;;23.65;56.45;101316.28;5099801;27;45370;-53
2022/08/19 07:24:41;;;;;;;;;2.00;2.00;;;;;23.65;56.40;101325.25;5099103;27;45439;-55
2022/08/19 07:27:07;;;;;;;;;4.25;3.00;;;;;23.57;56.45;101321.94;5099218;27;45353;-55
2022/08/19 07:29:34;;;;;;;;;1.80;1.80;;;;;23.44;57.03;101320.13;5098430;27;45394;-54
2022/08/19 07:32:01;;;;;;;;;3.25;2.00;;;;;23.31;57.10;101312.06;5099227;27;45306;-53
2022/08/19 07:34:29;;;;;;;;;3.00;1.00;;;;;23.25;57.51;101321.06;5098881;27;47184;-53
2022/08/19 07:36:55;;;;;;;;;2.60;2.60;;;;;23.17;57.65;101316.72;5098820;27;45978;-53
2022/08/19 07:39:30;;;;;;;;;3.00;3.00;;;;;23.08;57.59;101312.56;5099215;27;45306;-53
2022/08/19 07:41:57;;;;;;;;;4.00;3.00;;;;;23.08;57.90;101318.84;5099258;27;45393;-54
2022/08/19 07:44:23;;;;;;;;;3.00;3.00;;;;;23.04;58.09;101324.91;5098731;27;46520;-53
2022/08/19 07:46:53;;;;;;;;;4.50;2.00;;;;;22.99;57.89;101322.84;5098735;27;45276;-53
2022/08/19 07:49:19;;;;;;;;;1.80;1.80;;;;;22.93;57.99;101321.00;5098852;27;45376;-54
2022/08/19 07:51:48;;;;;;;;;2.20;1.00;;;;;22.88;58.40;101321.63;5099083;27;45424;-54
2022/08/19 07:54:14;;;;;;;;;4.00;2.00;;;;;22.84;58.86;101319.53;5098524;27;46357;-52
2022/08/19 07:56:39;;;;;;;;;2.50;2.50;;;;;22.73;59.12;101307.47;5098607;27;45236;-53
2022/08/19 07:59:05;;;;;;;;;2.25;2.25;;;;;22.82;58.80;101327.06;5098646;27;45733;-54
2022/08/19 08:01:30;;;;;;;;;2.25;2.25;;;;;22.79;59.09;101333.72;5099085;27;45339;-53
2022/08/19 08:09:33;;;;;;;;;5.60;3.20;;;;;22.74;59.35;101321.84;5098568;27;45368;-52
2022/08/19 08:12:05;;;;;;;;;2.25;2.25;;;;;22.78;59.02;101326.63;5098738;27;45371;-53
2022/08/19 08:14:34;;;;;;;;;1.75;1.75;;;;;22.77;59.27;101327.69;5098322;27;45410;-52
2022/08/19 08:17:01;;;;;;;;;1.20;1.20;;;;;22.80;59.08;101332.69;5097801;27;45408;-53
2022/08/19 08:19:28;;;;;;;;;2.60;2.60;;;;;22.86;59.04;101339.13;5098276;27;45203;-55
2022/08/19 08:21:56;;;;;;;;;2.00;2.00;;;;;22.91;58.92;101336.66;5098825;27;45356;-55
2022/08/19 08:24:22;;;;;;;;;2.20;2.20;;;;;22.89;58.46;101325.16;5098070;27;46407;-55
2022/08/19 08:26:48;;;;;;;;;2.00;2.00;;;;;23.03;58.10;101329.50;5098032;27;45349;-54
2022/08/19 08:29:15;;;;;;;;;1.50;1.50;;;;;23.19;57.82;101343.66;5098574;27;45298;-55
2022/08/19 08:31:42;;;;;;;;;0.80;0.80;;;;;23.24;57.86;101338.41;5098603;27;45292;-53
2022/08/19 08:34:08;;;;;;;;;1.00;1.00;;;;;23.23;57.71;101343.00;5098073;27;45196;-53
2022/08/19 08:36:42;;;;;;;;;1.00;1.00;;;;;23.15;57.83;101344.06;5098057;27;45436;-55
2022/08/19 08:39:16;;;;;;;;;2.00;2.00;;;;;23.08;57.57;101351.41;5098094;27;45356;-53
2022/08/19 08:41:53;;;;;;;;;2.80;2.80;;;;;22.98;58.44;101353.75;5098064;27;45520;-55
2022/08/19 08:44:29;;;;;;;;;1.40;1.40;;;;;22.98;58.24;101351.03;5097958;27;47001;-55
2022/08/19 08:47:04;;;;;;;;;1.00;1.00;;;;;23.02;58.25;101351.44;5098118;27;45413;-55
2022/08/19 08:49:41;;;;;;;;;2.00;2.00;;;;;23.06;58.34;101353.50;5079468;27;45472;-55
2022/08/19 08:52:13;;;;;;;;;1.00;1.00;;;;;23.10;58.12;101346.59;5098086;27;45488;-55
2022/08/19 08:54:46;;;;;;;;;2.00;2.00;;;;;23.16;58.16;101351.16;5097724;27;46256;-55
2022/08/19 08:57:18;;;;;;;;;1.00;1.00;;;;;23.24;58.11;101357.41;5097719;27;45210;-55
2022/08/19 08:59:51;;;;;;;;;2.80;2.80;;;;;23.31;57.93;101342.75;5097719;27;45401;-56
2022/08/19 09:02:18;;;;;;;;;1.80;1.60;;;;;23.33;57.53;101337.09;5097936;27;45450;-53
2022/08/19 09:04:44;;;;;;;;;1.80;1.80;;;;;23.37;57.52;101339.16;5097571;27;47276;-56
2022/08/19 09:07:18;;;;;;;;;3.00;3.00;;;;;23.44;57.38;101347.28;5096276;27;45448;-54
2022/08/19 09:09:49;;;;;;;;;6.40;4.00;;;;;23.47;57.39;101346.88;5097695;27;45401;-56
2022/08/19 09:12:21;;;;;;;;;3.00;3.00;;;;;23.53;57.11;101339.72;5097837;27;45394;-55
2022/08/19 09:14:54;;;;;;;;;3.00;3.00;;;;;23.62;56.99;101347.38;5097444;27;47313;-55
2022/08/19 09:17:30;;;;;;;;;2.80;2.60;;;;;23.66;56.75;101342.38;5097331;27;45464;-55
2022/08/19 09:20:04;;;;;;;;;3.00;3.00;;;;;23.69;56.76;101341.13;5097608;27;45231;-54
2022/08/19 09:22:30;;;;;;;;;2.80;2.80;;;;;23.71;56.96;101331.69;5097809;27;45225;-55
2022/08/19 09:24:56;;;;;;;;;4.25;2.25;;;;;23.76;56.21;101320.97;5097155;27;45982;-56
2022/08/19 09:27:26;;;;;;;;;3.25;3.25;;;;;23.99;56.39;101341.31;5097386;27;45357;-54
2022/08/19 09:29:53;;;;;;;;;2.40;2.20;;;;;24.01;55.80;101336.47;5097443;27;45379;-53
2022/08/19 09:32:19;;;;;;;;;3.60;2.40;;;;;24.05;55.89;101333.09;5097544;27;45450;-55
2022/08/19 09:34:45;;;;;;;;;3.00;3.00;;;;;24.12;55.90;101335.78;5097322;27;45704;-55
2022/08/19 09:37:13;;;;;;;;;4.00;3.00;;;;;24.02;55.50;101317.25;5097081;27;45354;-55
2022/08/19 09:39:40;;;;;;;;;3.80;3.00;;;;;24.14;55.51;101333.66;5097406;27;45177;-55
2022/08/19 09:42:11;;;;;;;;;3.60;3.60;;;;;24.19;55.51;101335.69;5097572;27;45509;-55
2022/08/19 09:44:37;;;;;;;;;4.00;4.00;;;;;24.22;55.26;101333.38;5096714;27;45492;-56
2022/08/19 09:47:03;;;;;;;;;2.40;2.40;;;;;24.44;54.95;101320.25;5097268;27;45455;-54
2022/08/19 09:49:31;;;;;;;;;2.00;2.00;;;;;24.94;54.20;101324.72;5079151;27;45329;-55
2022/08/19 09:51:57;;;;;;;;;4.40;2.80;;;;;24.97;53.74;101319.66;5097440;27;45449;-55
2022/08/19 09:54:23;;;;;;;;;1.80;1.80;;;;;24.98;53.52;101324.03;5100095;27;45987;-54
2022/08/19 09:56:48;;;;;;;;;3.60;2.20;;;;;24.88;53.91;101308.25;5100601;27;45337;-55
2022/08/19 09:59:14;;;;;;;;;2.25;2.25;;;;;25.19;53.69;101333.63;5100885;27;45282;-55
2022/08/19 10:01:39;;;;;;;;;1.50;1.50;;;;;25.16;53.55;101331.41;5101029;27;45548;-56
2022/08/19 10:04:08;;;;;;;;;3.00;3.00;;;;;25.32;52.81;101328.00;5100561;27;46329;-52
2022/08/19 10:06:35;;;;;;;;;2.80;2.00;;;;;25.55;52.30;101329.19;5100987;27;45349;-54
2022/08/19 10:09:04;;;;;;;;;2.40;2.40;;;;;25.29;52.88;101320.34;5100713;27;45346;-55
2022/08/19 10:11:29;;;;;;;;;3.60;3.60;;;;;24.94;53.46;101333.72;5100819;27;45505;-54
2022/08/19 10:13:55;;;;;;;;;3.00;3.00;;;;;24.65;54.01;101327.16;5100545;27;45310;-57
2022/08/19 10:16:23;;;;;;;;;3.00;2.00;;;;;24.51;54.47;101328.34;5100646;27;45343;-54
2022/08/19 10:18:49;;;;;;;;;3.20;3.20;;;;;24.57;54.60;101336.44;5100304;27;45291;-54
2022/08/19 10:21:21;;;;;;;;;4.40;4.00;;;;;24.76;54.28;101320.94;5100624;27;45349;-53
2022/08/19 10:23:49;;;;;;;;;2.60;2.60;;;;;24.84;53.89;101319.81;5100091;27;46641;-49
2022/08/19 10:26:23;;;;;;;;;6.80;3.80;;;;;24.86;54.29;101331.28;5100285;27;45353;-53
2022/08/19 10:28:49;;;;;;;;;3.00;3.00;;;;;24.88;53.67;101329.19;5100497;27;45380;-53
2022/08/19 10:31:19;;;;;;;;;6.20;4.00;;;;;24.68;54.15;101306.81;5100326;27;45528;-53
2022/08/19 10:33:45;;;;;;;;;4.80;3.60;;;;;24.81;54.15;101325.69;5099947;27;45492;-54
2022/08/19 10:36:19;;;;;;;;;5.60;4.40;;;;;24.87;53.64;101319.38;5099878;27;45284;-54
2022/08/19 10:38:46;;;;;;;;;5.20;3.80;;;;;24.91;53.55;101315.13;5100117;27;45483;-52
2022/08/19 10:41:15;;;;;;;;;3.00;2.00;;;;;25.12;53.21;101322.03;5100152;27;45438;-53
2022/08/19 10:43:41;;;;;;;;;2.40;2.40;;;;;25.19;53.43;101321.91;5099819;27;46354;-54
2022/08/19 10:46:08;;;;;;;;;2.20;2.20;;;;;25.96;52.32;101319.38;5099897;27;45421;-52
2022/08/19 10:48:34;;;;;;;;;2.40;2.40;;;;;27.16;48.85;101321.56;5099213;27;45333;-54
2022/08/19 10:53:44;;;;;;;;;3.00;3.00;;;;;27.32;48.05;101315.31;5099840;27;45347;-52
2022/08/19 10:58:54;;;;;;;;;4.20;3.40;;;;;27.48;47.71;101308.25;5100004;27;45436;-53
2022/08/19 11:01:20;;;;;;;;;3.25;3.00;;;;;27.31;48.10;101312.84;5100185;27;45869;-55
2022/08/19 11:03:45;;;;;;;;;3.80;3.80;;;;;27.19;48.30;101312.06;5098901;27;45488;-54
2022/08/19 11:06:11;;;;;;;;;2.00;2.00;;;;;26.89;49.25;101304.88;5098687;27;45284;-52
2022/08/19 11:08:37;;;;;;;;;3.60;2.60;;;;;27.13;48.42;101293.91;5099599;27;45405;-54
2022/08/19 11:11:04;;;;;;;;;3.25;3.00;;;;;29.01;45.19;101298.84;5099702;27;45441;-54
2022/08/19 11:13:33;;;;;;;;;4.20;2.20;;;;;29.54;43.66;101295.31;5099499;27;46339;-53
2022/08/19 11:16:19;;;;;;;;;3.00;2.80;;;;;29.37;44.50;101296.47;5099154;27;45476;-54
2022/08/19 11:18:48;;;;;;;;;1.60;1.60;;;;;28.94;44.08;101296.25;5099399;27;45357;-54
2022/08/19 11:21:19;;;;;;;;;1.60;1.60;;;;;28.54;45.42;101285.63;5098327;27;45255;-54
2022/08/19 11:23:46;;;;;;;;;2.40;2.20;;;;;28.11;46.13;101295.38;5099213;27;46028;-53
2022/08/19 11:26:13;;;;;;;;;3.20;2.60;;;;;27.72;46.89;101294.44;5098939;27;45426;-54
2022/08/19 11:28:38;;;;;;;;;1.60;1.60;;;;;27.31;47.94;101291.81;5098795;27;45227;-56
2022/08/19 11:31:04;;;;;;;;;2.50;2.25;;;;;27.08;48.03;101300.88;5099442;27;45218;-54
2022/08/19 11:33:32;;;;;;;;;2.00;2.00;;;;;27.01;48.45;101292.03;5099043;27;46092;-54
2022/08/19 11:35:59;;;;;;;;;1.60;1.00;;;;;27.14;48.31;101295.53;5098957;27;45360;-54
2022/08/19 11:38:25;;;;;;;;;5.40;3.80;;;;;27.32;48.41;101288.00;5098952;27;45444;-53
2022/08/19 11:40:58;;;;;;;;;3.60;1.80;;;;;27.32;48.14;101289.91;5099214;27;45209;-55